Portada
METAR-TAF:

METAR-TAF

Aeroports :

Aeroport Internacional Príncep Said Ibrahim

Moroni, Comores

latitud: 11-32S, longitud: 043-16E, altitud: 29 m

METAR: manca

Hora: 09:06 (06:06 UTC)

Pronòstic

L'informe es va fer fa 1 hora i 6 minuts, a les 05:00 UTC
Pronòstic vàlid del 02 a les 06 UTC al 03 a les 12 UTC
Vent 5 kt del Sud-Est
Visibilitat 10 km o més
Escasses núvols a una alçada de 2000 ft
Evolucionant progressivament
l' 02 a les 06 UTC al 02 a les 08 UTC
Vent 10 kt del Nord-Oest
Probabilitat 30% :
Temporalment
l' 02 a les 11 UTC al 02 a les 15 UTC
Visibilitat: 4500 m
Núvols disperses a una alçada de 2000 ft, Cumulonimbus.
Cel ennuvolat a una alçada de 2800 ft
tempesta, pluja
Evolucionant progressivament
l' 03 a les 05 UTC al 03 a les 07 UTC
Vent 10 kt del Oest/Sud-Oest

TAF: FMCH 020500Z 0206/0312 14005KT 9999 FEW020 BECMG 0206/0208 32010KT PROB30 TEMPO 0211/0215 4500 TSRA SCT020CB BKN028 BECMG 0305/0307 25010KT

Observacions i pronòstics meteorològics de més de 4000 aeroports (METAR i TAF).

Les estacions disponibles són els punts grocs i vermells al mapa.

Posi el ratolí al punt desitjat per veure el nom de l'estació.

Feu clic per veure les observacions i els pronòstics meteorològics.

Per canviar el mapa: feu clic els botons verds amb una creu de color negre per apropar; al botó verd amb un guió per allunyar la imatge; o en les fletxes verdes per a mapes adjacents.


METAR-TAF: